sensor_id;sensor_type;location;lat;lon;timestamp;pressure;altitude;pressure_sealevel;temperature;humidity
37972;BME280;23794;48.234;8.344;2024-02-23T00:02:13;92469.16;;;2.05;86.47
37972;BME280;23794;48.234;8.344;2024-02-23T00:05:06;92473.72;;;2.23;85.40
37972;BME280;23794;48.234;8.344;2024-02-23T00:07:56;92478.38;;;2.22;86.39
37972;BME280;23794;48.234;8.344;2024-02-23T00:10:27;92485.69;;;2.25;86.08
37972;BME280;23794;48.234;8.344;2024-02-23T00:12:56;92479.50;;;2.36;87.18
37972;BME280;23794;48.234;8.344;2024-02-23T00:15:23;92489.91;;;2.37;87.59
37972;BME280;23794;48.234;8.344;2024-02-23T00:17:51;92487.56;;;2.50;86.97
37972;BME280;23794;48.234;8.344;2024-02-23T00:20:18;92472.13;;;2.54;87.39
37972;BME280;23794;48.234;8.344;2024-02-23T00:22:45;92470.94;;;2.55;86.03
37972;BME280;23794;48.234;8.344;2024-02-23T00:25:11;92455.13;;;2.54;86.65
37972;BME280;23794;48.234;8.344;2024-02-23T00:27:38;92464.78;;;2.51;87.39
37972;BME280;23794;48.234;8.344;2024-02-23T00:30:08;92466.28;;;2.63;86.77
37972;BME280;23794;48.234;8.344;2024-02-23T00:32:34;92471.69;;;2.67;86.91
37972;BME280;23794;48.234;8.344;2024-02-23T00:35:01;92475.09;;;2.74;86.91
37972;BME280;23794;48.234;8.344;2024-02-23T00:37:28;92464.66;;;2.80;86.27
37972;BME280;23794;48.234;8.344;2024-02-23T00:39:54;92454.25;;;2.78;86.94
37972;BME280;23794;48.234;8.344;2024-02-23T00:42:21;92453.13;;;2.72;86.46
37972;BME280;23794;48.234;8.344;2024-02-23T00:44:48;92473.16;;;2.82;87.26
37972;BME280;23794;48.234;8.344;2024-02-23T00:47:14;92478.13;;;2.91;86.09
37972;BME280;23794;48.234;8.344;2024-02-23T00:49:41;92488.56;;;2.96;86.75
37972;BME280;23794;48.234;8.344;2024-02-23T00:52:08;92472.72;;;2.91;85.69
37972;BME280;23794;48.234;8.344;2024-02-23T00:54:34;92454.94;;;2.90;86.12
37972;BME280;23794;48.234;8.344;2024-02-23T00:57:01;92474.66;;;2.90;86.56
37972;BME280;23794;48.234;8.344;2024-02-23T00:59:28;92471.16;;;2.93;86.71
37972;BME280;23794;48.234;8.344;2024-02-23T01:01:55;92470.00;;;2.94;87.17
37972;BME280;23794;48.234;8.344;2024-02-23T01:04:22;92501.28;;;2.99;87.53
37972;BME280;23794;48.234;8.344;2024-02-23T01:06:54;92482.31;;;3.03;86.99
37972;BME280;23794;48.234;8.344;2024-02-23T01:14:03;92503.53;;;3.08;86.90
37972;BME280;23794;48.234;8.344;2024-02-23T01:17:46;92510.91;;;3.07;85.99
37972;BME280;23794;48.234;8.344;2024-02-23T01:20:44;92503.56;;;3.04;86.32
37972;BME280;23794;48.234;8.344;2024-02-23T01:23:10;92502.81;;;3.04;85.89
37972;BME280;23794;48.234;8.344;2024-02-23T01:25:37;92513.63;;;3.00;85.60
37972;BME280;23794;48.234;8.344;2024-02-23T01:28:04;92514.06;;;2.95;84.85
37972;BME280;23794;48.234;8.344;2024-02-23T01:30:31;92511.75;;;2.86;86.50
37972;BME280;23794;48.234;8.344;2024-02-23T01:32:58;92508.72;;;2.77;84.78
37972;BME280;23794;48.234;8.344;2024-02-23T01:35:25;92500.97;;;2.79;84.71
37972;BME280;23794;48.234;8.344;2024-02-23T01:37:53;92501.78;;;2.76;85.16
37972;BME280;23794;48.234;8.344;2024-02-23T01:40:19;92502.50;;;2.80;84.63
37972;BME280;23794;48.234;8.344;2024-02-23T01:42:46;92500.22;;;2.75;84.74
37972;BME280;23794;48.234;8.344;2024-02-23T01:45:13;92500.25;;;2.68;84.16
37972;BME280;23794;48.234;8.344;2024-02-23T01:47:39;92503.72;;;2.68;86.23
37972;BME280;23794;48.234;8.344;2024-02-23T01:50:06;92510.28;;;2.67;85.61
37972;BME280;23794;48.234;8.344;2024-02-23T01:52:35;92523.81;;;2.63;84.24
37972;BME280;23794;48.234;8.344;2024-02-23T01:55:02;92519.19;;;2.64;85.09
37972;BME280;23794;48.234;8.344;2024-02-23T01:57:29;92516.88;;;2.70;84.96
37972;BME280;23794;48.234;8.344;2024-02-23T02:00:17;92523.78;;;2.71;85.19
37972;BME280;23794;48.234;8.344;2024-02-23T02:02:50;92525.72;;;2.70;85.93
37972;BME280;23794;48.234;8.344;2024-02-23T02:05:17;92528.81;;;2.72;83.91
37972;BME280;23794;48.234;8.344;2024-02-23T02:07:46;92524.59;;;2.68;85.27
37972;BME280;23794;48.234;8.344;2024-02-23T02:10:14;92517.63;;;2.67;85.53
37972;BME280;23794;48.234;8.344;2024-02-23T02:12:40;92518.03;;;2.65;84.86
37972;BME280;23794;48.234;8.344;2024-02-23T02:15:07;92521.50;;;2.69;84.73
37972;BME280;23794;48.234;8.344;2024-02-23T02:17:34;92520.75;;;2.61;85.60
37972;BME280;23794;48.234;8.344;2024-02-23T02:20:04;92525.75;;;2.63;84.32
37972;BME280;23794;48.234;8.344;2024-02-23T02:22:34;92526.94;;;2.58;85.29
37972;BME280;23794;48.234;8.344;2024-02-23T02:25:01;92514.53;;;2.64;85.08
37972;BME280;23794;48.234;8.344;2024-02-23T02:27:27;92520.38;;;2.59;86.49
37972;BME280;23794;48.234;8.344;2024-02-23T02:29:54;92516.88;;;2.62;85.21
37972;BME280;23794;48.234;8.344;2024-02-23T02:32:21;92521.91;;;2.64;85.21
37972;BME280;23794;48.234;8.344;2024-02-23T02:34:48;92523.44;;;2.69;84.89
37972;BME280;23794;48.234;8.344;2024-02-23T02:37:15;92530.41;;;2.66;86.19
37972;BME280;23794;48.234;8.344;2024-02-23T02:39:41;92532.28;;;2.73;85.12
37972;BME280;23794;48.234;8.344;2024-02-23T02:42:08;92526.91;;;2.62;85.90
37972;BME280;23794;48.234;8.344;2024-02-23T02:44:35;92521.13;;;2.60;86.59
37972;BME280;23794;48.234;8.344;2024-02-23T02:47:01;92514.19;;;2.66;85.01
37972;BME280;23794;48.234;8.344;2024-02-23T02:49:28;92526.56;;;2.53;85.74
37972;BME280;23794;48.234;8.344;2024-02-23T02:51:54;92518.81;;;2.58;85.51
37972;BME280;23794;48.234;8.344;2024-02-23T02:54:21;92508.00;;;2.58;85.44
37972;BME280;23794;48.234;8.344;2024-02-23T02:56:48;92496.03;;;2.63;85.29
37972;BME280;23794;48.234;8.344;2024-02-23T02:59:16;92497.22;;;2.55;85.58
37972;BME280;23794;48.234;8.344;2024-02-23T03:01:44;92498.81;;;2.38;87.12
37972;BME280;23794;48.234;8.344;2024-02-23T03:04:13;92503.81;;;2.43;86.11
37972;BME280;23794;48.234;8.344;2024-02-23T03:06:40;92498.00;;;2.44;85.87
37972;BME280;23794;48.234;8.344;2024-02-23T03:09:06;92501.88;;;2.36;85.38
37972;BME280;23794;48.234;8.344;2024-02-23T03:11:33;92500.31;;;2.46;85.55
37972;BME280;23794;48.234;8.344;2024-02-23T03:14:01;92499.19;;;2.36;87.08
37972;BME280;23794;48.234;8.344;2024-02-23T03:16:27;92489.13;;;2.44;85.59
37972;BME280;23794;48.234;8.344;2024-02-23T03:18:57;92489.53;;;2.42;86.28
37972;BME280;23794;48.234;8.344;2024-02-23T03:21:23;92501.91;;;2.40;86.81
37972;BME280;23794;48.234;8.344;2024-02-23T03:23:50;92500.38;;;2.28;87.32
37972;BME280;23794;48.234;8.344;2024-02-23T03:26:16;92498.03;;;2.33;87.38
37972;BME280;23794;48.234;8.344;2024-02-23T03:28:43;92500.72;;;2.37;87.45
37972;BME280;23794;48.234;8.344;2024-02-23T03:31:10;92501.91;;;2.40;87.53
37972;BME280;23794;48.234;8.344;2024-02-23T03:33:37;92501.53;;;2.34;87.91
37972;BME280;23794;48.234;8.344;2024-02-23T03:36:04;92506.91;;;2.41;86.14
37972;BME280;23794;48.234;8.344;2024-02-23T03:38:31;92511.91;;;2.39;85.46
37972;BME280;23794;48.234;8.344;2024-02-23T03:40:58;92513.84;;;2.42;86.12
37972;BME280;23794;48.234;8.344;2024-02-23T03:43:25;92500.31;;;2.46;85.79
37972;BME280;23794;48.234;8.344;2024-02-23T03:45:51;92494.16;;;2.35;85.80
37972;BME280;23794;48.234;8.344;2024-02-23T03:48:18;92496.50;;;2.29;86.01
37972;BME280;23794;48.234;8.344;2024-02-23T03:50:45;92505.75;;;2.35;86.82
37972;BME280;23794;48.234;8.344;2024-02-23T03:53:12;92507.28;;;2.32;86.33
37972;BME280;23794;48.234;8.344;2024-02-23T03:55:39;92506.13;;;2.41;86.09
37972;BME280;23794;48.234;8.344;2024-02-23T03:58:05;92507.31;;;2.40;84.99
37972;BME280;23794;48.234;8.344;2024-02-23T04:00:32;92500.72;;;2.37;85.09
37972;BME280;23794;48.234;8.344;2024-02-23T04:02:59;92508.47;;;2.28;87.57
37972;BME280;23794;48.234;8.344;2024-02-23T04:05:26;92499.56;;;2.42;86.56
37972;BME280;23794;48.234;8.344;2024-02-23T04:07:52;92497.97;;;2.52;86.31
37972;BME280;23794;48.234;8.344;2024-02-23T04:10:19;92487.97;;;2.48;86.16
37972;BME280;23794;48.234;8.344;2024-02-23T04:12:49;92486.00;;;2.56;85.44
37972;BME280;23794;48.234;8.344;2024-02-23T04:15:16;92492.22;;;2.46;86.01
37972;BME280;23794;48.234;8.344;2024-02-23T04:17:42;92495.72;;;2.28;87.07
37972;BME280;23794;48.234;8.344;2024-02-23T04:20:09;92491.88;;;2.29;86.49
37972;BME280;23794;48.234;8.344;2024-02-23T04:22:37;92497.66;;;2.31;87.00
37972;BME280;23794;48.234;8.344;2024-02-23T04:25:04;92486.09;;;2.24;86.62
37972;BME280;23794;48.234;8.344;2024-02-23T04:27:31;92468.72;;;2.25;86.11
37972;BME280;23794;48.234;8.344;2024-02-23T04:29:58;92462.91;;;2.26;85.79
37972;BME280;23794;48.234;8.344;2024-02-23T04:32:25;92456.41;;;2.09;85.88
37972;BME280;23794;48.234;8.344;2024-02-23T04:34:52;92461.44;;;2.00;86.33
37972;BME280;23794;48.234;8.344;2024-02-23T04:37:19;92451.03;;;2.02;86.09
37972;BME280;23794;48.234;8.344;2024-02-23T04:39:45;92452.97;;;1.83;85.39
37972;BME280;23794;48.234;8.344;2024-02-23T04:42:12;92446.41;;;1.84;85.62
37972;BME280;23794;48.234;8.344;2024-02-23T04:44:41;92449.50;;;1.83;85.36
37972;BME280;23794;48.234;8.344;2024-02-23T04:47:08;92440.28;;;1.66;83.77
37972;BME280;23794;48.234;8.344;2024-02-23T04:49:35;92436.03;;;1.72;84.24
37972;BME280;23794;48.234;8.344;2024-02-23T04:52:02;92428.31;;;1.74;83.39
37972;BME280;23794;48.234;8.344;2024-02-23T04:54:29;92429.88;;;1.68;84.45
37972;BME280;23794;48.234;8.344;2024-02-23T04:56:55;92438.72;;;1.61;84.21
37972;BME280;23794;48.234;8.344;2024-02-23T04:59:22;92432.94;;;1.56;83.16
37972;BME280;23794;48.234;8.344;2024-02-23T05:01:49;92425.25;;;1.58;83.22
37972;BME280;23794;48.234;8.344;2024-02-23T05:04:16;92424.47;;;1.46;84.12
37972;BME280;23794;48.234;8.344;2024-02-23T05:06:42;92416.75;;;1.45;83.38
37972;BME280;23794;48.234;8.344;2024-02-23T05:09:11;92423.31;;;1.40;84.27
37972;BME280;23794;48.234;8.344;2024-02-23T05:11:37;92410.63;;;1.33;82.97
37972;BME280;23794;48.234;8.344;2024-02-23T05:14:04;92416.78;;;1.37;82.90
37972;BME280;23794;48.234;8.344;2024-02-23T05:16:32;92413.69;;;1.39;83.02
37972;BME280;23794;48.234;8.344;2024-02-23T05:18:59;92410.63;;;1.33;83.01
37972;BME280;23794;48.234;8.344;2024-02-23T05:21:26;92408.28;;;1.35;83.18
37972;BME280;23794;48.234;8.344;2024-02-23T05:23:52;92420.22;;;1.38;82.18
37972;BME280;23794;48.234;8.344;2024-02-23T05:26:19;92417.94;;;1.33;81.53
37972;BME280;23794;48.234;8.344;2024-02-23T05:28:46;92427.56;;;1.27;81.14
37972;BME280;23794;48.234;8.344;2024-02-23T05:31:13;92428.72;;;1.26;81.99
37972;BME280;23794;48.234;8.344;2024-02-23T05:33:40;92439.91;;;1.31;81.46
37972;BME280;23794;48.234;8.344;2024-02-23T05:36:07;92418.72;;;1.30;81.61
37972;BME280;23794;48.234;8.344;2024-02-23T05:38:34;92430.66;;;1.21;81.94
37972;BME280;23794;48.234;8.344;2024-02-23T05:41:01;92446.06;;;1.25;80.81
37972;BME280;23794;48.234;8.344;2024-02-23T05:43:27;92428.72;;;1.22;81.39
37972;BME280;23794;48.234;8.344;2024-02-23T05:45:54;92439.09;;;1.20;82.14
37972;BME280;23794;48.234;8.344;2024-02-23T05:48:23;92448.72;;;1.10;82.11
37972;BME280;23794;48.234;8.344;2024-02-23T05:50:50;92442.94;;;1.15;82.03
37972;BME280;23794;48.234;8.344;2024-02-23T05:53:17;92450.28;;;1.15;82.57
37972;BME280;23794;48.234;8.344;2024-02-23T05:55:44;92447.59;;;1.15;82.30
37972;BME280;23794;48.234;8.344;2024-02-23T05:58:10;92446.81;;;1.03;82.90
37972;BME280;23794;48.234;8.344;2024-02-23T06:00:40;92454.50;;;0.98;84.54
37972;BME280;23794;48.234;8.344;2024-02-23T06:03:06;92462.19;;;0.92;84.10
37972;BME280;23794;48.234;8.344;2024-02-23T06:05:33;92469.50;;;0.84;85.41
37972;BME280;23794;48.234;8.344;2024-02-23T06:08:00;92468.38;;;0.93;84.07
37972;BME280;23794;48.234;8.344;2024-02-23T06:10:27;92478.75;;;0.90;83.78
37972;BME280;23794;48.234;8.344;2024-02-23T06:12:54;92473.72;;;0.82;83.95
37972;BME280;23794;48.234;8.344;2024-02-23T06:15:24;92474.06;;;0.69;84.25
37972;BME280;23794;48.234;8.344;2024-02-23T06:17:51;92489.47;;;0.65;84.34
37972;BME280;23794;48.234;8.344;2024-02-23T06:20:18;92475.19;;;0.65;84.06
37972;BME280;23794;48.234;8.344;2024-02-23T06:22:46;92481.38;;;0.62;84.22
37972;BME280;23794;48.234;8.344;2024-02-23T06:25:13;92486.75;;;0.58;84.66
37972;BME280;23794;48.234;8.344;2024-02-23T06:27:40;92477.13;;;0.61;84.60
37972;BME280;23794;48.234;8.344;2024-02-23T06:30:08;92472.47;;;0.57;84.66
37972;BME280;23794;48.234;8.344;2024-02-23T06:32:40;92467.47;;;0.52;84.70
37972;BME280;23794;48.234;8.344;2024-02-23T06:35:07;92465.53;;;0.49;84.94
37972;BME280;23794;48.234;8.344;2024-02-23T06:37:35;92467.41;;;0.38;85.07
37972;BME280;23794;48.234;8.344;2024-02-23T06:40:02;92467.44;;;0.45;84.90
37972;BME280;23794;48.234;8.344;2024-02-23T06:42:31;92479.00;;;0.49;85.06
37972;BME280;23794;48.234;8.344;2024-02-23T06:44:57;92478.63;;;0.47;85.19
37972;BME280;23794;48.234;8.344;2024-02-23T06:47:24;92490.16;;;0.48;85.24
37972;BME280;23794;48.234;8.344;2024-02-23T06:49:51;92500.56;;;0.53;85.25
37972;BME280;23794;48.234;8.344;2024-02-23T06:52:18;92507.50;;;0.54;85.40
37972;BME280;23794;48.234;8.344;2024-02-23T06:54:45;92505.19;;;0.56;85.07
37972;BME280;23794;48.234;8.344;2024-02-23T06:57:11;92504.81;;;0.57;84.88
37972;BME280;23794;48.234;8.344;2024-02-23T06:59:38;92517.50;;;0.53;85.24
37972;BME280;23794;48.234;8.344;2024-02-23T07:02:05;92513.28;;;0.56;84.76
37972;BME280;23794;48.234;8.344;2024-02-23T07:04:32;92514.03;;;0.56;84.94
37972;BME280;23794;48.234;8.344;2024-02-23T07:07:00;92506.38;;;0.58;85.54
37972;BME280;23794;48.234;8.344;2024-02-23T07:09:33;92509.06;;;0.58;84.88
37972;BME280;23794;48.234;8.344;2024-02-23T07:12:00;92519.06;;;0.58;85.32
37972;BME280;23794;48.234;8.344;2024-02-23T07:14:27;92511.34;;;0.56;84.75
37972;BME280;23794;48.234;8.344;2024-02-23T07:16:53;92503.25;;;0.53;84.82
37972;BME280;23794;48.234;8.344;2024-02-23T07:19:20;92513.59;;;0.43;86.27
37972;BME280;23794;48.234;8.344;2024-02-23T07:21:47;92503.63;;;0.48;85.76
37972;BME280;23794;48.234;8.344;2024-02-23T07:24:16;92503.63;;;0.48;85.15
37972;BME280;23794;48.234;8.344;2024-02-23T07:26:44;92507.06;;;0.45;86.35
37972;BME280;23794;48.234;8.344;2024-02-23T07:29:10;92517.47;;;0.46;85.82
37972;BME280;23794;48.234;8.344;2024-02-23T07:31:37;92521.66;;;0.40;86.35
37972;BME280;23794;48.234;8.344;2024-02-23T07:34:04;92527.84;;;0.40;85.95
37972;BME280;23794;48.234;8.344;2024-02-23T07:36:30;92525.56;;;0.42;85.00
37972;BME280;23794;48.234;8.344;2024-02-23T07:38:58;92532.41;;;0.36;85.24
37972;BME280;23794;48.234;8.344;2024-02-23T07:41:24;92517.81;;;0.37;85.32
37972;BME280;23794;48.234;8.344;2024-02-23T07:43:51;92528.94;;;0.32;85.01
37972;BME280;23794;48.234;8.344;2024-02-23T07:46:18;92535.50;;;0.35;85.13
37972;BME280;23794;48.234;8.344;2024-02-23T07:48:47;92537.03;;;0.36;85.38
37972;BME280;23794;48.234;8.344;2024-02-23T07:51:15;92535.56;;;0.46;85.48
37972;BME280;23794;48.234;8.344;2024-02-23T07:53:41;92529.41;;;0.49;86.03
37972;BME280;23794;48.234;8.344;2024-02-23T07:56:08;92527.19;;;0.65;85.26
37972;BME280;23794;48.234;8.344;2024-02-23T07:58:35;92526.09;;;0.77;84.76
37972;BME280;23794;48.234;8.344;2024-02-23T08:01:01;92516.13;;;0.96;84.80
37972;BME280;23794;48.234;8.344;2024-02-23T08:03:28;92520.81;;;1.17;85.22
37972;BME280;23794;48.234;8.344;2024-02-23T08:05:55;92517.00;;;1.36;84.41
37972;BME280;23794;48.234;8.344;2024-02-23T08:08:23;92516.59;;;1.41;83.11
37972;BME280;23794;48.234;8.344;2024-02-23T08:10:52;92514.31;;;1.61;83.41
37972;BME280;23794;48.234;8.344;2024-02-23T08:13:18;92512.38;;;1.65;82.48
37972;BME280;23794;48.234;8.344;2024-02-23T08:15:45;92519.31;;;1.81;81.74
37972;BME280;23794;48.234;8.344;2024-02-23T08:18:12;92523.97;;;1.91;81.55
37972;BME280;23794;48.234;8.344;2024-02-23T08:20:38;92514.28;;;2.05;81.26
37972;BME280;23794;48.234;8.344;2024-02-23T08:23:05;92500.41;;;2.13;81.07
37972;BME280;23794;48.234;8.344;2024-02-23T08:25:32;92498.88;;;2.12;78.97
37972;BME280;23794;48.234;8.344;2024-02-23T08:27:58;92474.91;;;2.18;77.52
37972;BME280;23794;48.234;8.344;2024-02-23T08:30:25;92474.91;;;2.18;77.89
37972;BME280;23794;48.234;8.344;2024-02-23T08:32:52;92471.06;;;2.08;77.16
37972;BME280;23794;48.234;8.344;2024-02-23T08:35:19;92462.19;;;2.19;77.70
37972;BME280;23794;48.234;8.344;2024-02-23T08:37:46;92459.84;;;2.24;75.52
37972;BME280;23794;48.234;8.344;2024-02-23T08:40:12;92458.66;;;2.32;76.77
37972;BME280;23794;48.234;8.344;2024-02-23T08:42:39;92445.84;;;2.58;75.93
37972;BME280;23794;48.234;8.344;2024-02-23T08:45:06;92436.47;;;2.77;75.68
37972;BME280;23794;48.234;8.344;2024-02-23T08:47:33;92433.34;;;2.83;71.61
37972;BME280;23794;48.234;8.344;2024-02-23T08:50:02;92440.66;;;2.93;74.32
37972;BME280;23794;48.234;8.344;2024-02-23T08:52:29;92438.94;;;3.17;75.64
37972;BME280;23794;48.234;8.344;2024-02-23T08:54:56;92440.84;;;3.24;72.89
37972;BME280;23794;48.234;8.344;2024-02-23T08:57:23;92433.41;;;3.35;72.59
37972;BME280;23794;48.234;8.344;2024-02-23T08:59:50;92448.09;;;3.38;72.93
37972;BME280;23794;48.234;8.344;2024-02-23T09:02:16;92443.84;;;3.40;71.10
37972;BME280;23794;48.234;8.344;2024-02-23T09:04:43;92439.06;;;3.55;72.38
37972;BME280;23794;48.234;8.344;2024-02-23T09:07:12;92449.16;;;3.51;70.44
37972;BME280;23794;48.234;8.344;2024-02-23T09:09:39;92445.22;;;3.59;70.77
37972;BME280;23794;48.234;8.344;2024-02-23T09:12:06;92448.19;;;3.72;70.96
37972;BME280;23794;48.234;8.344;2024-02-23T09:14:37;92436.56;;;3.79;71.01
37972;BME280;23794;48.234;8.344;2024-02-23T09:17:05;92427.59;;;3.86;70.17
37972;BME280;23794;48.234;8.344;2024-02-23T09:19:32;92440.66;;;3.95;70.55
37972;BME280;23794;48.234;8.344;2024-02-23T09:21:59;92440.59;;;4.02;70.67
37972;BME280;23794;48.234;8.344;2024-02-23T09:24:26;92437.03;;;4.12;69.09
37972;BME280;23794;48.234;8.344;2024-02-23T09:26:53;92438.09;;;4.22;70.03
37972;BME280;23794;48.234;8.344;2024-02-23T09:29:19;92445.59;;;4.42;70.50
37972;BME280;23794;48.234;8.344;2024-02-23T09:31:47;92453.50;;;4.63;69.78
37972;BME280;23794;48.234;8.344;2024-02-23T09:34:14;92432.94;;;4.66;67.40
37972;BME280;23794;48.234;8.344;2024-02-23T09:36:40;92447.44;;;4.52;67.13
37972;BME280;23794;48.234;8.344;2024-02-23T09:39:09;92426.03;;;4.61;66.31
37972;BME280;23794;48.234;8.344;2024-02-23T09:41:37;92436.63;;;4.83;68.94
37972;BME280;23794;48.234;8.344;2024-02-23T09:44:05;92440.50;;;4.82;67.74
37972;BME280;23794;48.234;8.344;2024-02-23T09:46:36;92437.03;;;4.81;67.36
37972;BME280;23794;48.234;8.344;2024-02-23T09:49:03;92440.78;;;4.91;66.09
37972;BME280;23794;48.234;8.344;2024-02-23T09:51:33;92441.41;;;5.02;67.32
37972;BME280;23794;48.234;8.344;2024-02-23T09:54:02;92444.41;;;5.12;65.89
37972;BME280;23794;48.234;8.344;2024-02-23T09:56:29;92450.00;;;5.28;66.00
37972;BME280;23794;48.234;8.344;2024-02-23T09:59:01;92443.44;;;5.26;65.89
37972;BME280;23794;48.234;8.344;2024-02-23T10:01:29;92447.28;;;5.28;66.01
37972;BME280;23794;48.234;8.344;2024-02-23T10:03:57;92444.63;;;5.25;64.87
37972;BME280;23794;48.234;8.344;2024-02-23T10:06:25;92449.47;;;5.37;64.80
37972;BME280;23794;48.234;8.344;2024-02-23T10:08:52;92449.47;;;5.37;63.92
37972;BME280;23794;48.234;8.344;2024-02-23T10:11:23;92451.38;;;5.40;63.11
37972;BME280;23794;48.234;8.344;2024-02-23T10:13:50;92460.34;;;5.37;62.81
37972;BME280;23794;48.234;8.344;2024-02-23T10:16:19;92464.59;;;5.38;63.08
37972;BME280;23794;48.234;8.344;2024-02-23T10:18:52;92457.06;;;5.49;63.34
37972;BME280;23794;48.234;8.344;2024-02-23T10:21:19;92454.34;;;5.49;63.43
37972;BME280;23794;48.234;8.344;2024-02-23T10:23:47;92446.94;;;5.77;63.48
37972;BME280;23794;48.234;8.344;2024-02-23T10:26:13;92441.44;;;6.05;61.90
37972;BME280;23794;48.234;8.344;2024-02-23T10:28:45;92441.56;;;6.21;60.56
37972;BME280;23794;48.234;8.344;2024-02-23T10:31:12;92446.63;;;6.19;61.43
37972;BME280;23794;48.234;8.344;2024-02-23T10:33:39;92441.66;;;6.14;61.67
37972;BME280;23794;48.234;8.344;2024-02-23T10:36:07;92441.59;;;6.18;61.47
37972;BME280;23794;48.234;8.344;2024-02-23T10:38:38;92459.38;;;6.22;57.98
37972;BME280;23794;48.234;8.344;2024-02-23T10:41:09;92453.81;;;6.29;58.28
37972;BME280;23794;48.234;8.344;2024-02-23T10:43:42;92471.69;;;6.51;58.89
37972;BME280;23794;48.234;8.344;2024-02-23T10:46:11;92462.78;;;6.50;57.80
37972;BME280;23794;48.234;8.344;2024-02-23T10:48:44;92456.78;;;6.59;58.29
37972;BME280;23794;48.234;8.344;2024-02-23T10:51:14;92458.72;;;6.78;58.08
37972;BME280;23794;48.234;8.344;2024-02-23T10:53:48;92458.38;;;6.97;57.29
37972;BME280;23794;48.234;8.344;2024-02-23T10:56:15;92453.78;;;6.93;58.23
37972;BME280;23794;48.234;8.344;2024-02-23T10:58:42;92453.47;;;7.08;57.98
37972;BME280;23794;48.234;8.344;2024-02-23T11:01:09;92456.50;;;6.93;57.65
37972;BME280;23794;48.234;8.344;2024-02-23T11:03:37;92455.03;;;6.69;57.85
37972;BME280;23794;48.234;8.344;2024-02-23T11:06:07;92457.28;;;6.74;56.75
37972;BME280;23794;48.234;8.344;2024-02-23T11:08:34;92453.03;;;6.93;54.80
37972;BME280;23794;48.234;8.344;2024-02-23T11:11:10;92451.34;;;6.79;54.86
37972;BME280;23794;48.234;8.344;2024-02-23T11:13:38;92454.78;;;7.20;56.18
37972;BME280;23794;48.234;8.344;2024-02-23T11:16:05;92446.72;;;7.53;56.43
37972;BME280;23794;48.234;8.344;2024-02-23T11:18:34;92445.03;;;7.59;55.52
37972;BME280;23794;48.234;8.344;2024-02-23T11:21:03;92443.91;;;7.90;53.83
37972;BME280;23794;48.234;8.344;2024-02-23T11:23:47;92445.19;;;7.85;55.47
37972;BME280;23794;48.234;8.344;2024-02-23T11:26:17;92448.25;;;8.03;55.30
37972;BME280;23794;48.234;8.344;2024-02-23T11:28:48;92449.16;;;8.30;55.00
37972;BME280;23794;48.234;8.344;2024-02-23T11:31:21;92439.91;;;8.11;50.85
37972;BME280;23794;48.234;8.344;2024-02-23T11:33:52;92439.00;;;8.30;51.57
37972;BME280;23794;48.234;8.344;2024-02-23T11:36:34;92450.69;;;8.31;50.95
37972;BME280;23794;48.234;8.344;2024-02-23T11:39:01;92450.69;;;8.31;51.97
37972;BME280;23794;48.234;8.344;2024-02-23T11:41:28;92451.72;;;8.20;53.82
37972;BME280;23794;48.234;8.344;2024-02-23T11:43:56;92446.72;;;7.69;53.34
37972;BME280;23794;48.234;8.344;2024-02-23T11:46:24;92441.03;;;7.27;54.39
37972;BME280;23794;48.234;8.344;2024-02-23T11:48:51;92447.13;;;7.15;56.53
37972;BME280;23794;48.234;8.344;2024-02-23T11:51:22;92445.63;;;7.30;55.10
37972;BME280;23794;48.234;8.344;2024-02-23T11:53:50;92443.66;;;7.67;54.43
37972;BME280;23794;48.234;8.344;2024-02-23T11:56:16;92435.22;;;7.62;52.99
37972;BME280;23794;48.234;8.344;2024-02-23T11:58:46;92437.31;;;7.54;52.11
37972;BME280;23794;48.234;8.344;2024-02-23T12:01:13;92435.66;;;7.60;53.32
37972;BME280;23794;48.234;8.344;2024-02-23T12:03:40;92441.09;;;7.93;51.65
37972;BME280;23794;48.234;8.344;2024-02-23T12:06:08;92425.34;;;7.84;50.22
37972;BME280;23794;48.234;8.344;2024-02-23T12:08:36;92432.59;;;7.38;51.04
37972;BME280;23794;48.234;8.344;2024-02-23T12:11:07;92432.25;;;7.36;52.94
37972;BME280;23794;48.234;8.344;2024-02-23T12:13:38;92424.13;;;7.52;51.37
37972;BME280;23794;48.234;8.344;2024-02-23T12:16:07;92436.25;;;7.31;52.97
37972;BME280;23794;48.234;8.344;2024-02-23T12:18:35;92430.03;;;7.51;52.07
37972;BME280;23794;48.234;8.344;2024-02-23T12:21:05;92424.16;;;7.85;54.43
37972;BME280;23794;48.234;8.344;2024-02-23T12:23:42;92429.09;;;7.91;49.81
37972;BME280;23794;48.234;8.344;2024-02-23T12:26:11;92428.47;;;8.16;51.08
37972;BME280;23794;48.234;8.344;2024-02-23T12:28:40;92425.53;;;8.23;51.15
37972;BME280;23794;48.234;8.344;2024-02-23T12:31:07;92438.09;;;8.20;50.09
37972;BME280;23794;48.234;8.344;2024-02-23T12:33:36;92430.53;;;7.79;50.43
37972;BME280;23794;48.234;8.344;2024-02-23T12:36:04;92442.78;;;7.54;50.50
37972;BME280;23794;48.234;8.344;2024-02-23T12:38:31;92444.25;;;7.38;52.16
37972;BME280;23794;48.234;8.344;2024-02-23T12:40:59;92444.09;;;7.29;52.59
37972;BME280;23794;48.234;8.344;2024-02-23T12:43:26;92437.84;;;7.49;53.03
37972;BME280;23794;48.234;8.344;2024-02-23T12:45:53;92436.31;;;7.48;53.24
37972;BME280;23794;48.234;8.344;2024-02-23T12:48:23;92436.94;;;7.55;53.19
37972;BME280;23794;48.234;8.344;2024-02-23T12:50:50;92444.22;;;7.59;53.16
37972;BME280;23794;48.234;8.344;2024-02-23T12:53:36;92442.63;;;7.61;51.72
37972;BME280;23794;48.234;8.344;2024-02-23T12:56:09;92440.84;;;7.71;53.79
37972;BME280;23794;48.234;8.344;2024-02-23T12:58:37;92453.34;;;7.52;52.23
37972;BME280;23794;48.234;8.344;2024-02-23T13:01:04;92452.16;;;7.53;54.27
37972;BME280;23794;48.234;8.344;2024-02-23T13:03:33;92451.50;;;7.45;53.82
37972;BME280;23794;48.234;8.344;2024-02-23T13:06:01;92449.34;;;7.56;54.23
37972;BME280;23794;48.234;8.344;2024-02-23T13:08:27;92447.75;;;7.59;53.12
37972;BME280;23794;48.234;8.344;2024-02-23T13:10:56;92441.69;;;7.68;54.54
37972;BME280;23794;48.234;8.344;2024-02-23T13:13:23;92425.16;;;8.08;53.05
37972;BME280;23794;48.234;8.344;2024-02-23T13:15:52;92426.34;;;8.07;52.25
37972;BME280;23794;48.234;8.344;2024-02-23T13:18:19;92421.38;;;8.18;53.41
37972;BME280;23794;48.234;8.344;2024-02-23T13:20:47;92421.97;;;8.56;52.68